sensor_id;sensor_type;location;lat;lon;timestamp;temperature;humidity
3330;DHT22;1677;49.576;10.990;2022-07-05T00:00:14;23.20;43.10
3330;DHT22;1677;49.576;10.990;2022-07-05T00:02:40;22.70;44.10
3330;DHT22;1677;49.576;10.990;2022-07-05T00:05:06;22.40;45.10
3330;DHT22;1677;49.576;10.990;2022-07-05T00:07:32;22.10;45.90
3330;DHT22;1677;49.576;10.990;2022-07-05T00:09:58;21.80;46.90
3330;DHT22;1677;49.576;10.990;2022-07-05T00:12:27;21.70;47.40
3330;DHT22;1677;49.576;10.990;2022-07-05T00:14:53;21.50;48.10
3330;DHT22;1677;49.576;10.990;2022-07-05T00:17:18;21.30;49.10
3330;DHT22;1677;49.576;10.990;2022-07-05T00:19:44;21.20;49.40
3330;DHT22;1677;49.576;10.990;2022-07-05T00:22:10;21.10;49.80
3330;DHT22;1677;49.576;10.990;2022-07-05T00:24:36;21.00;50.10
3330;DHT22;1677;49.576;10.990;2022-07-05T00:27:02;21.00;50.30
3330;DHT22;1677;49.576;10.990;2022-07-05T00:29:28;20.90;50.80
3330;DHT22;1677;49.576;10.990;2022-07-05T00:31:53;20.80;50.80
3330;DHT22;1677;49.576;10.990;2022-07-05T00:34:19;21.10;51.20
3330;DHT22;1677;49.576;10.990;2022-07-05T00:36:44;21.80;50.30
3330;DHT22;1677;49.576;10.990;2022-07-05T00:39:10;22.70;48.00
3330;DHT22;1677;49.576;10.990;2022-07-05T00:41:36;23.00;46.70
3330;DHT22;1677;49.576;10.990;2022-07-05T00:44:06;23.10;45.80
3330;DHT22;1677;49.576;10.990;2022-07-05T00:46:33;23.30;46.40
3330;DHT22;1677;49.576;10.990;2022-07-05T00:48:59;23.20;45.60
3330;DHT22;1677;49.576;10.990;2022-07-05T00:51:26;23.10;45.90
3330;DHT22;1677;49.576;10.990;2022-07-05T00:53:52;22.60;46.70
3330;DHT22;1677;49.576;10.990;2022-07-05T00:56:22;22.20;47.50
3330;DHT22;1677;49.576;10.990;2022-07-05T00:58:48;21.80;48.20
3330;DHT22;1677;49.576;10.990;2022-07-05T01:01:15;21.40;49.30
3330;DHT22;1677;49.576;10.990;2022-07-05T01:03:42;21.10;50.20
3330;DHT22;1677;49.576;10.990;2022-07-05T01:06:09;20.80;50.80
3330;DHT22;1677;49.576;10.990;2022-07-05T01:08:39;20.60;51.30
3330;DHT22;1677;49.576;10.990;2022-07-05T01:11:06;20.50;51.80
3330;DHT22;1677;49.576;10.990;2022-07-05T01:13:32;20.30;52.10
3330;DHT22;1677;49.576;10.990;2022-07-05T01:15:58;20.20;52.50
3330;DHT22;1677;49.576;10.990;2022-07-05T01:18:24;20.10;52.80
3330;DHT22;1677;49.576;10.990;2022-07-05T01:20:51;20.00;53.20
3330;DHT22;1677;49.576;10.990;2022-07-05T01:23:18;20.00;53.20
3330;DHT22;1677;49.576;10.990;2022-07-05T01:25:45;19.90;53.20
3330;DHT22;1677;49.576;10.990;2022-07-05T01:28:11;19.80;53.80
3330;DHT22;1677;49.576;10.990;2022-07-05T01:30:38;19.90;53.60
3330;DHT22;1677;49.576;10.990;2022-07-05T01:33:06;20.40;52.80
3330;DHT22;1677;49.576;10.990;2022-07-05T01:35:32;21.10;52.20
3330;DHT22;1677;49.576;10.990;2022-07-05T01:37:58;21.80;50.00
3330;DHT22;1677;49.576;10.990;2022-07-05T01:40:23;22.20;48.30
3330;DHT22;1677;49.576;10.990;2022-07-05T01:42:49;22.40;48.20
3330;DHT22;1677;49.576;10.990;2022-07-05T01:45:15;22.50;47.50
3330;DHT22;1677;49.576;10.990;2022-07-05T01:48:02;22.50;47.20
3330;DHT22;1677;49.576;10.990;2022-07-05T01:50:29;22.10;48.10
3330;DHT22;1677;49.576;10.990;2022-07-05T01:52:56;21.70;48.90
3330;DHT22;1677;49.576;10.990;2022-07-05T01:55:24;21.20;50.00
3330;DHT22;1677;49.576;10.990;2022-07-05T01:57:49;20.80;50.90
3330;DHT22;1677;49.576;10.990;2022-07-05T02:00:15;20.50;52.10
3330;DHT22;1677;49.576;10.990;2022-07-05T02:02:41;20.20;53.10
3330;DHT22;1677;49.576;10.990;2022-07-05T02:05:07;20.00;53.90
3330;DHT22;1677;49.576;10.990;2022-07-05T02:07:33;19.80;54.40
3330;DHT22;1677;49.576;10.990;2022-07-05T02:09:59;19.70;54.90
3330;DHT22;1677;49.576;10.990;2022-07-05T02:12:24;19.60;55.30
3330;DHT22;1677;49.576;10.990;2022-07-05T02:14:50;19.50;55.50
3330;DHT22;1677;49.576;10.990;2022-07-05T02:17:15;19.30;56.20
3330;DHT22;1677;49.576;10.990;2022-07-05T02:19:41;19.20;56.60
3330;DHT22;1677;49.576;10.990;2022-07-05T02:22:06;19.10;57.40
3330;DHT22;1677;49.576;10.990;2022-07-05T02:24:33;19.10;57.90
3330;DHT22;1677;49.576;10.990;2022-07-05T02:26:58;19.00;58.20
3330;DHT22;1677;49.576;10.990;2022-07-05T02:29:24;19.10;58.10
3330;DHT22;1677;49.576;10.990;2022-07-05T02:31:50;19.70;57.20
3330;DHT22;1677;49.576;10.990;2022-07-05T02:34:15;20.40;55.10
3330;DHT22;1677;49.576;10.990;2022-07-05T02:36:41;20.90;53.40
3330;DHT22;1677;49.576;10.990;2022-07-05T02:39:07;21.30;53.10
3330;DHT22;1677;49.576;10.990;2022-07-05T02:41:32;21.50;52.30
3330;DHT22;1677;49.576;10.990;2022-07-05T02:43:58;21.70;51.30
3330;DHT22;1677;49.576;10.990;2022-07-05T02:46:24;21.50;52.30
3330;DHT22;1677;49.576;10.990;2022-07-05T02:48:50;21.20;52.20
3330;DHT22;1677;49.576;10.990;2022-07-05T02:51:18;20.70;52.80
3330;DHT22;1677;49.576;10.990;2022-07-05T02:53:43;20.20;54.20
3330;DHT22;1677;49.576;10.990;2022-07-05T02:56:09;19.80;55.80
3330;DHT22;1677;49.576;10.990;2022-07-05T02:58:36;19.50;57.10
3330;DHT22;1677;49.576;10.990;2022-07-05T03:01:02;19.20;57.20
3330;DHT22;1677;49.576;10.990;2022-07-05T03:03:27;19.00;58.10
3330;DHT22;1677;49.576;10.990;2022-07-05T03:05:53;18.80;58.80
3330;DHT22;1677;49.576;10.990;2022-07-05T03:08:18;18.70;59.70
3330;DHT22;1677;49.576;10.990;2022-07-05T03:10:44;18.60;60.30
3330;DHT22;1677;49.576;10.990;2022-07-05T03:13:10;18.50;61.10
3330;DHT22;1677;49.576;10.990;2022-07-05T03:15:35;18.50;61.70
3330;DHT22;1677;49.576;10.990;2022-07-05T03:18:01;18.30;62.80
3330;DHT22;1677;49.576;10.990;2022-07-05T03:20:26;18.30;63.70
3330;DHT22;1677;49.576;10.990;2022-07-05T03:22:52;18.30;64.30
3330;DHT22;1677;49.576;10.990;2022-07-05T03:25:18;18.20;65.60
3330;DHT22;1677;49.576;10.990;2022-07-05T03:27:43;18.40;65.40
3330;DHT22;1677;49.576;10.990;2022-07-05T03:30:09;19.10;62.90
3330;DHT22;1677;49.576;10.990;2022-07-05T03:32:35;19.80;59.60
3330;DHT22;1677;49.576;10.990;2022-07-05T03:35:01;20.30;57.80
3330;DHT22;1677;49.576;10.990;2022-07-05T03:37:26;20.60;56.80
3330;DHT22;1677;49.576;10.990;2022-07-05T03:39:52;20.80;56.30
3330;DHT22;1677;49.576;10.990;2022-07-05T03:42:17;20.70;56.50
3330;DHT22;1677;49.576;10.990;2022-07-05T03:44:43;20.40;56.90
3330;DHT22;1677;49.576;10.990;2022-07-05T03:47:08;20.10;57.90
3330;DHT22;1677;49.576;10.990;2022-07-05T03:49:34;19.70;59.80
3330;DHT22;1677;49.576;10.990;2022-07-05T03:51:59;19.30;60.60
3330;DHT22;1677;49.576;10.990;2022-07-05T03:54:25;18.90;63.30
3330;DHT22;1677;49.576;10.990;2022-07-05T03:56:50;18.70;64.00
3330;DHT22;1677;49.576;10.990;2022-07-05T03:59:16;18.50;65.20
3330;DHT22;1677;49.576;10.990;2022-07-05T04:01:42;18.30;65.90
3330;DHT22;1677;49.576;10.990;2022-07-05T04:04:07;18.30;66.80
3330;DHT22;1677;49.576;10.990;2022-07-05T04:06:33;18.10;68.70
3330;DHT22;1677;49.576;10.990;2022-07-05T04:08:59;18.10;69.80
3330;DHT22;1677;49.576;10.990;2022-07-05T04:11:24;18.00;70.60
3330;DHT22;1677;49.576;10.990;2022-07-05T04:13:50;18.00;71.40
3330;DHT22;1677;49.576;10.990;2022-07-05T04:16:15;18.00;71.60
3330;DHT22;1677;49.576;10.990;2022-07-05T04:18:41;18.00;71.60
3330;DHT22;1677;49.576;10.990;2022-07-05T04:21:07;18.00;71.90
3330;DHT22;1677;49.576;10.990;2022-07-05T04:23:32;17.90;72.50
3330;DHT22;1677;49.576;10.990;2022-07-05T04:25:59;18.20;72.60
3330;DHT22;1677;49.576;10.990;2022-07-05T04:28:25;19.00;69.40
3330;DHT22;1677;49.576;10.990;2022-07-05T04:30:51;19.90;65.80
3330;DHT22;1677;49.576;10.990;2022-07-05T04:33:16;20.60;61.60
3330;DHT22;1677;49.576;10.990;2022-07-05T04:35:42;20.80;60.90
3330;DHT22;1677;49.576;10.990;2022-07-05T04:38:08;20.90;59.30
3330;DHT22;1677;49.576;10.990;2022-07-05T04:40:33;21.10;58.50
3330;DHT22;1677;49.576;10.990;2022-07-05T04:42:59;20.90;59.40
3330;DHT22;1677;49.576;10.990;2022-07-05T04:45:24;20.60;60.00
3330;DHT22;1677;49.576;10.990;2022-07-05T04:47:50;20.30;60.50
3330;DHT22;1677;49.576;10.990;2022-07-05T04:50:15;19.80;62.60
3330;DHT22;1677;49.576;10.990;2022-07-05T04:52:41;19.50;63.70
3330;DHT22;1677;49.576;10.990;2022-07-05T04:55:07;19.20;65.90
3330;DHT22;1677;49.576;10.990;2022-07-05T04:57:40;19.00;67.20
3330;DHT22;1677;49.576;10.990;2022-07-05T05:00:10;18.90;68.30
3330;DHT22;1677;49.576;10.990;2022-07-05T05:02:36;18.80;68.70
3330;DHT22;1677;49.576;10.990;2022-07-05T05:05:02;18.70;70.10
3330;DHT22;1677;49.576;10.990;2022-07-05T05:07:29;18.70;70.50
3330;DHT22;1677;49.576;10.990;2022-07-05T05:09:55;18.60;71.20
3330;DHT22;1677;49.576;10.990;2022-07-05T05:12:20;18.60;71.70
3330;DHT22;1677;49.576;10.990;2022-07-05T05:14:46;18.60;72.40
3330;DHT22;1677;49.576;10.990;2022-07-05T05:17:12;18.60;72.00
3330;DHT22;1677;49.576;10.990;2022-07-05T05:19:37;18.60;72.70
3330;DHT22;1677;49.576;10.990;2022-07-05T05:22:03;18.60;72.40
3330;DHT22;1677;49.576;10.990;2022-07-05T05:24:29;19.10;70.80
3330;DHT22;1677;49.576;10.990;2022-07-05T05:26:54;20.00;66.70
3330;DHT22;1677;49.576;10.990;2022-07-05T05:29:20;20.80;62.40
3330;DHT22;1677;49.576;10.990;2022-07-05T05:31:47;21.40;59.70
3330;DHT22;1677;49.576;10.990;2022-07-05T05:34:12;21.70;58.50
3330;DHT22;1677;49.576;10.990;2022-07-05T05:36:38;21.80;57.60
3330;DHT22;1677;49.576;10.990;2022-07-05T05:39:04;21.70;57.60
3330;DHT22;1677;49.576;10.990;2022-07-05T05:41:30;21.50;58.20
3330;DHT22;1677;49.576;10.990;2022-07-05T05:43:55;21.20;58.90
3330;DHT22;1677;49.576;10.990;2022-07-05T05:46:21;20.80;59.80
3330;DHT22;1677;49.576;10.990;2022-07-05T05:48:46;20.40;61.30
3330;DHT22;1677;49.576;10.990;2022-07-05T05:51:12;20.20;63.10
3330;DHT22;1677;49.576;10.990;2022-07-05T05:53:37;20.00;63.70
3330;DHT22;1677;49.576;10.990;2022-07-05T05:56:03;19.90;64.10
3330;DHT22;1677;49.576;10.990;2022-07-05T05:58:29;19.80;65.00
3330;DHT22;1677;49.576;10.990;2022-07-05T06:00:54;19.70;65.70
3330;DHT22;1677;49.576;10.990;2022-07-05T06:03:22;19.60;65.90
3330;DHT22;1677;49.576;10.990;2022-07-05T06:05:48;19.60;65.60
3330;DHT22;1677;49.576;10.990;2022-07-05T06:08:14;19.60;66.10
3330;DHT22;1677;49.576;10.990;2022-07-05T06:10:40;19.60;66.00
3330;DHT22;1677;49.576;10.990;2022-07-05T06:13:07;19.60;66.20
3330;DHT22;1677;49.576;10.990;2022-07-05T06:15:33;19.60;66.80
3330;DHT22;1677;49.576;10.990;2022-07-05T06:17:59;19.60;67.20
3330;DHT22;1677;49.576;10.990;2022-07-05T06:20:27;19.90;67.40
3330;DHT22;1677;49.576;10.990;2022-07-05T06:22:54;20.70;64.10
3330;DHT22;1677;49.576;10.990;2022-07-05T06:25:20;21.60;61.20
3330;DHT22;1677;49.576;10.990;2022-07-05T06:27:47;22.20;58.40
3330;DHT22;1677;49.576;10.990;2022-07-05T06:30:16;22.60;56.90
3330;DHT22;1677;49.576;10.990;2022-07-05T06:32:45;22.80;55.30
3330;DHT22;1677;49.576;10.990;2022-07-05T06:35:11;22.70;54.60
3330;DHT22;1677;49.576;10.990;2022-07-05T06:38:00;22.80;54.50
3330;DHT22;1677;49.576;10.990;2022-07-05T06:40:28;22.30;55.00
3330;DHT22;1677;49.576;10.990;2022-07-05T06:42:56;21.90;56.40
3330;DHT22;1677;49.576;10.990;2022-07-05T06:45:24;21.60;57.70
3330;DHT22;1677;49.576;10.990;2022-07-05T06:48:04;21.30;59.00
3330;DHT22;1677;49.576;10.990;2022-07-05T06:50:33;21.20;60.50
3330;DHT22;1677;49.576;10.990;2022-07-05T06:53:01;21.10;60.70
3330;DHT22;1677;49.576;10.990;2022-07-05T06:55:27;21.10;60.30
3330;DHT22;1677;49.576;10.990;2022-07-05T06:57:57;21.00;61.20
3330;DHT22;1677;49.576;10.990;2022-07-05T07:00:24;20.90;62.10
3330;DHT22;1677;49.576;10.990;2022-07-05T07:02:50;20.90;62.70
3330;DHT22;1677;49.576;10.990;2022-07-05T07:05:15;20.90;62.90
3330;DHT22;1677;49.576;10.990;2022-07-05T07:07:41;20.90;62.50
3330;DHT22;1677;49.576;10.990;2022-07-05T07:10:25;20.90;63.20
3330;DHT22;1677;49.576;10.990;2022-07-05T07:12:51;20.90;62.50
3330;DHT22;1677;49.576;10.990;2022-07-05T07:15:16;20.90;62.60
3330;DHT22;1677;49.576;10.990;2022-07-05T07:17:42;21.50;61.30
3330;DHT22;1677;49.576;10.990;2022-07-05T07:20:08;22.30;58.90
3330;DHT22;1677;49.576;10.990;2022-07-05T07:22:34;23.10;56.40
3330;DHT22;1677;49.576;10.990;2022-07-05T07:24:59;23.60;54.50
3330;DHT22;1677;49.576;10.990;2022-07-05T07:27:25;23.90;54.00
3330;DHT22;1677;49.576;10.990;2022-07-05T07:29:50;24.10;52.40
3330;DHT22;1677;49.576;10.990;2022-07-05T07:32:16;24.30;51.90
3330;DHT22;1677;49.576;10.990;2022-07-05T07:34:44;24.10;51.70
3330;DHT22;1677;49.576;10.990;2022-07-05T07:37:09;23.80;52.60
3330;DHT22;1677;49.576;10.990;2022-07-05T07:39:38;23.40;53.60
3330;DHT22;1677;49.576;10.990;2022-07-05T07:42:05;23.10;54.70
3330;DHT22;1677;49.576;10.990;2022-07-05T07:44:30;22.80;56.30
3330;DHT22;1677;49.576;10.990;2022-07-05T07:46:56;22.60;57.30
3330;DHT22;1677;49.576;10.990;2022-07-05T07:49:21;22.50;58.10
3330;DHT22;1677;49.576;10.990;2022-07-05T07:51:47;22.40;58.30
3330;DHT22;1677;49.576;10.990;2022-07-05T07:54:13;22.20;58.70
3330;DHT22;1677;49.576;10.990;2022-07-05T07:56:39;22.20;60.00
3330;DHT22;1677;49.576;10.990;2022-07-05T07:59:04;22.20;59.10
3330;DHT22;1677;49.576;10.990;2022-07-05T08:01:30;22.10;59.10
3330;DHT22;1677;49.576;10.990;2022-07-05T08:03:56;22.10;60.40
3330;DHT22;1677;49.576;10.990;2022-07-05T08:06:22;22.10;60.70
3330;DHT22;1677;49.576;10.990;2022-07-05T08:08:48;22.10;60.50
3330;DHT22;1677;49.576;10.990;2022-07-05T08:11:15;22.20;59.50
3330;DHT22;1677;49.576;10.990;2022-07-05T08:13:41;22.70;58.80
3330;DHT22;1677;49.576;10.990;2022-07-05T08:16:09;23.60;56.30
3330;DHT22;1677;49.576;10.990;2022-07-05T08:18:35;24.50;53.30
3330;DHT22;1677;49.576;10.990;2022-07-05T08:21:19;24.90;51.80
3330;DHT22;1677;49.576;10.990;2022-07-05T08:24:07;25.20;50.90
3330;DHT22;1677;49.576;10.990;2022-07-05T08:26:34;25.30;49.50
3330;DHT22;1677;49.576;10.990;2022-07-05T08:29:00;25.50;48.00
3330;DHT22;1677;49.576;10.990;2022-07-05T08:31:27;25.50;48.20
3330;DHT22;1677;49.576;10.990;2022-07-05T08:33:53;25.50;47.00
3330;DHT22;1677;49.576;10.990;2022-07-05T08:36:19;25.30;47.80
3330;DHT22;1677;49.576;10.990;2022-07-05T08:38:45;25.00;49.50
3330;DHT22;1677;49.576;10.990;2022-07-05T08:41:11;24.60;49.10
3330;DHT22;1677;49.576;10.990;2022-07-05T08:43:40;24.40;48.30
3330;DHT22;1677;49.576;10.990;2022-07-05T08:46:08;24.20;47.70
3330;DHT22;1677;49.576;10.990;2022-07-05T08:48:39;24.00;46.50
3330;DHT22;1677;49.576;10.990;2022-07-05T08:51:14;23.90;47.30
3330;DHT22;1677;49.576;10.990;2022-07-05T08:53:43;23.70;46.50
3330;DHT22;1677;49.576;10.990;2022-07-05T08:56:10;23.60;46.50
3330;DHT22;1677;49.576;10.990;2022-07-05T08:58:36;23.60;47.50
3330;DHT22;1677;49.576;10.990;2022-07-05T09:01:03;23.50;47.20
3330;DHT22;1677;49.576;10.990;2022-07-05T09:03:32;23.50;47.60
3330;DHT22;1677;49.576;10.990;2022-07-05T09:06:01;23.50;47.90
3330;DHT22;1677;49.576;10.990;2022-07-05T09:08:30;23.50;48.00
3330;DHT22;1677;49.576;10.990;2022-07-05T09:11:01;23.60;47.60
3330;DHT22;1677;49.576;10.990;2022-07-05T09:13:31;24.10;46.90
3330;DHT22;1677;49.576;10.990;2022-07-05T09:15:57;24.70;45.70
3330;DHT22;1677;49.576;10.990;2022-07-05T09:18:45;25.40;44.50
3330;DHT22;1677;49.576;10.990;2022-07-05T09:21:20;26.30;41.40
3330;DHT22;1677;49.576;10.990;2022-07-05T09:24:13;26.40;41.20
3330;DHT22;1677;49.576;10.990;2022-07-05T09:26:47;26.40;40.40
3330;DHT22;1677;49.576;10.990;2022-07-05T09:29:19;26.60;41.40
3330;DHT22;1677;49.576;10.990;2022-07-05T09:31:49;26.60;40.50
3330;DHT22;1677;49.576;10.990;2022-07-05T09:34:17;26.70;40.60
3330;DHT22;1677;49.576;10.990;2022-07-05T09:36:48;26.70;40.50
3330;DHT22;1677;49.576;10.990;2022-07-05T09:39:13;26.50;40.50
3330;DHT22;1677;49.576;10.990;2022-07-05T09:41:39;26.60;41.60
3330;DHT22;1677;49.576;10.990;2022-07-05T09:44:04;26.40;41.60
3330;DHT22;1677;49.576;10.990;2022-07-05T09:46:31;26.00;41.00
3330;DHT22;1677;49.576;10.990;2022-07-05T09:48:57;25.70;40.90
3330;DHT22;1677;49.576;10.990;2022-07-05T09:51:22;25.40;41.40
3330;DHT22;1677;49.576;10.990;2022-07-05T09:53:53;25.30;43.00
3330;DHT22;1677;49.576;10.990;2022-07-05T09:56:20;25.20;42.80
3330;DHT22;1677;49.576;10.990;2022-07-05T09:58:46;25.00;43.30
3330;DHT22;1677;49.576;10.990;2022-07-05T10:01:31;24.90;42.50
3330;DHT22;1677;49.576;10.990;2022-07-05T10:03:59;24.90;41.70
3330;DHT22;1677;49.576;10.990;2022-07-05T10:06:31;24.80;43.40
3330;DHT22;1677;49.576;10.990;2022-07-05T10:08:57;25.00;44.00
3330;DHT22;1677;49.576;10.990;2022-07-05T10:11:24;25.00;43.90
3330;DHT22;1677;49.576;10.990;2022-07-05T10:13:51;25.10;43.10
3330;DHT22;1677;49.576;10.990;2022-07-05T10:16:18;25.50;43.70
3330;DHT22;1677;49.576;10.990;2022-07-05T10:18:51;26.10;42.50
3330;DHT22;1677;49.576;10.990;2022-07-05T10:21:18;26.90;40.90
3330;DHT22;1677;49.576;10.990;2022-07-05T10:23:49;27.50;39.80
3330;DHT22;1677;49.576;10.990;2022-07-05T10:26:23;27.80;38.20
3330;DHT22;1677;49.576;10.990;2022-07-05T10:28:53;28.00;37.20
3330;DHT22;1677;49.576;10.990;2022-07-05T10:31:19;28.20;37.50
3330;DHT22;1677;49.576;10.990;2022-07-05T10:33:45;28.30;36.50
3330;DHT22;1677;49.576;10.990;2022-07-05T10:36:12;28.40;36.90
3330;DHT22;1677;49.576;10.990;2022-07-05T10:38:39;28.60;37.50
3330;DHT22;1677;49.576;10.990;2022-07-05T10:41:08;28.70;36.10
3330;DHT22;1677;49.576;10.990;2022-07-05T10:43:34;28.70;35.60
3330;DHT22;1677;49.576;10.990;2022-07-05T10:46:00;28.70;35.70
3330;DHT22;1677;49.576;10.990;2022-07-05T10:48:27;29.00;36.20
3330;DHT22;1677;49.576;10.990;2022-07-05T10:50:56;28.80;36.00
3330;DHT22;1677;49.576;10.990;2022-07-05T11:06:28;29.20;36.00
3330;DHT22;1677;49.576;10.990;2022-07-05T11:11:36;29.60;35.80
3330;DHT22;1677;49.576;10.990;2022-07-05T11:14:48;29.90;35.10
3330;DHT22;1677;49.576;10.990;2022-07-05T11:22:32;30.20;32.90
3330;DHT22;1677;49.576;10.990;2022-07-05T11:24:58;30.10;32.90
3330;DHT22;1677;49.576;10.990;2022-07-05T11:27:24;29.80;33.10
3330;DHT22;1677;49.576;10.990;2022-07-05T11:29:54;29.70;33.90
3330;DHT22;1677;49.576;10.990;2022-07-05T11:32:23;29.70;33.00
3330;DHT22;1677;49.576;10.990;2022-07-05T11:34:51;29.80;33.00
3330;DHT22;1677;49.576;10.990;2022-07-05T11:37:22;30.10;33.70
3330;DHT22;1677;49.576;10.990;2022-07-05T11:42:35;30.50;33.00
3330;DHT22;1677;49.576;10.990;2022-07-05T11:45:04;30.40;32.30
3330;DHT22;1677;49.576;10.990;2022-07-05T11:47:30;30.50;32.30
3330;DHT22;1677;49.576;10.990;2022-07-05T11:49:57;30.50;30.90
3330;DHT22;1677;49.576;10.990;2022-07-05T11:52:27;30.50;31.20
3330;DHT22;1677;49.576;10.990;2022-07-05T11:54:53;30.70;30.00
3330;DHT22;1677;49.576;10.990;2022-07-05T11:57:19;30.70;32.00
3330;DHT22;1677;49.576;10.990;2022-07-05T11:59:45;30.80;30.70
3330;DHT22;1677;49.576;10.990;2022-07-05T12:02:11;30.80;31.00
3330;DHT22;1677;49.576;10.990;2022-07-05T12:04:36;30.80;30.00
3330;DHT22;1677;49.576;10.990;2022-07-05T12:07:02;30.70;30.40
3330;DHT22;1677;49.576;10.990;2022-07-05T12:09:29;30.80;30.40
3330;DHT22;1677;49.576;10.990;2022-07-05T12:12:21;30.80;30.00
3330;DHT22;1677;49.576;10.990;2022-07-05T12:15:06;30.70;30.00
3330;DHT22;1677;49.576;10.990;2022-07-05T12:17:34;30.80;29.40
3330;DHT22;1677;49.576;10.990;2022-07-05T12:20:00;30.60;29.50
3330;DHT22;1677;49.576;10.990;2022-07-05T12:22:33;30.80;29.60
3330;DHT22;1677;49.576;10.990;2022-07-05T12:25:00;31.10;29.70
3330;DHT22;1677;49.576;10.990;2022-07-05T12:27:27;30.90;29.00
3330;DHT22;1677;49.576;10.990;2022-07-05T12:29:55;31.00;30.00
3330;DHT22;1677;49.576;10.990;2022-07-05T12:32:20;31.20;29.50
3330;DHT22;1677;49.576;10.990;2022-07-05T12:34:46;31.40;29.80
3330;DHT22;1677;49.576;10.990;2022-07-05T12:37:23;31.80;30.00
3330;DHT22;1677;49.576;10.990;2022-07-05T12:39:49;31.80;28.20
3330;DHT22;1677;49.576;10.990;2022-07-05T12:42:37;31.50;28.30
3330;DHT22;1677;49.576;10.990;2022-07-05T12:45:12;31.30;28.50
3330;DHT22;1677;49.576;10.990;2022-07-05T12:47:54;31.40;29.70
3330;DHT22;1677;49.576;10.990;2022-07-05T12:50:27;31.70;29.10
3330;DHT22;1677;49.576;10.990;2022-07-05T12:53:00;31.80;28.60
3330;DHT22;1677;49.576;10.990;2022-07-05T12:55:36;31.60;29.00
3330;DHT22;1677;49.576;10.990;2022-07-05T12:58:20;31.60;28.60
3330;DHT22;1677;49.576;10.990;2022-07-05T13:00:46;31.70;28.10
3330;DHT22;1677;49.576;10.990;2022-07-05T13:03:11;31.90;27.90
3330;DHT22;1677;49.576;10.990;2022-07-05T13:05:37;32.20;28.20
3330;DHT22;1677;49.576;10.990;2022-07-05T13:08:03;32.10;27.80
3330;DHT22;1677;49.576;10.990;2022-07-05T13:10:29;32.30;27.90
3330;DHT22;1677;49.576;10.990;2022-07-05T13:12:57;32.50;28.40
3330;DHT22;1677;49.576;10.990;2022-07-05T13:15:23;32.40;28.00
3330;DHT22;1677;49.576;10.990;2022-07-05T13:17:49;32.60;27.50
3330;DHT22;1677;49.576;10.990;2022-07-05T13:20:16;32.50;26.90
3330;DHT22;1677;49.576;10.990;2022-07-05T13:22:43;32.40;26.70
3330;DHT22;1677;49.576;10.990;2022-07-05T13:25:09;32.30;26.30
3330;DHT22;1677;49.576;10.990;2022-07-05T13:27:37;32.30;26.90
3330;DHT22;1677;49.576;10.990;2022-07-05T13:30:03;32.30;27.40
3330;DHT22;1677;49.576;10.990;2022-07-05T13:32:29;32.50;27.20
3330;DHT22;1677;49.576;10.990;2022-07-05T13:34:54;32.50;26.60
3330;DHT22;1677;49.576;10.990;2022-07-05T13:37:20;32.50;26.50
3330;DHT22;1677;49.576;10.990;2022-07-05T13:39:46;32.40;26.30
3330;DHT22;1677;49.576;10.990;2022-07-05T13:42:11;32.40;26.80
3330;DHT22;1677;49.576;10.990;2022-07-05T13:44:37;32.50;27.50
3330;DHT22;1677;49.576;10.990;2022-07-05T13:47:02;32.50;28.20
3330;DHT22;1677;49.576;10.990;2022-07-05T13:49:29;32.40;27.00
3330;DHT22;1677;49.576;10.990;2022-07-05T13:51:56;32.30;26.90
3330;DHT22;1677;49.576;10.990;2022-07-05T13:54:23;32.60;27.20
3330;DHT22;1677;49.576;10.990;2022-07-05T13:56:48;32.60;26.70
3330;DHT22;1677;49.576;10.990;2022-07-05T13:59:14;32.80;27.20
3330;DHT22;1677;49.576;10.990;2022-07-05T14:01:40;32.80;26.80
3330;DHT22;1677;49.576;10.990;2022-07-05T14:04:05;33.00;26.90
3330;DHT22;1677;49.576;10.990;2022-07-05T14:06:32;33.20;26.20
3330;DHT22;1677;49.576;10.990;2022-07-05T14:08:58;33.20;26.70
3330;DHT22;1677;49.576;10.990;2022-07-05T14:11:25;32.90;26.40
3330;DHT22;1677;49.576;10.990;2022-07-05T14:13:55;32.90;25.70
3330;DHT22;1677;49.576;10.990;2022-07-05T14:16:21;32.50;26.40
3330;DHT22;1677;49.576;10.990;2022-07-05T14:18:47;32.70;26.00
3330;DHT22;1677;49.576;10.990;2022-07-05T14:21:15;32.60;26.00
3330;DHT22;1677;49.576;10.990;2022-07-05T14:23:42;32.80;26.00
3330;DHT22;1677;49.576;10.990;2022-07-05T14:26:07;33.00;26.40
3330;DHT22;1677;49.576;10.990;2022-07-05T14:28:34;33.10;25.30
3330;DHT22;1677;49.576;10.990;2022-07-05T14:31:00;32.70;25.90
3330;DHT22;1677;49.576;10.990;2022-07-05T14:33:25;32.70;26.10
3330;DHT22;1677;49.576;10.990;2022-07-05T14:35:51;32.70;25.40
3330;DHT22;1677;49.576;10.990;2022-07-05T14:38:16;32.70;25.90
3330;DHT22;1677;49.576;10.990;2022-07-05T14:40:42;32.70;25.90
3330;DHT22;1677;49.576;10.990;2022-07-05T14:43:07;32.80;25.50
3330;DHT22;1677;49.576;10.990;2022-07-05T14:45:33;32.30;26.00
3330;DHT22;1677;49.576;10.990;2022-07-05T14:47:59;32.30;26.20
3330;DHT22;1677;49.576;10.990;2022-07-05T14:50:24;32.60;26.20
3330;DHT22;1677;49.576;10.990;2022-07-05T14:52:50;32.50;25.50
3330;DHT22;1677;49.576;10.990;2022-07-05T14:55:16;32.50;25.70
3330;DHT22;1677;49.576;10.990;2022-07-05T14:57:42;32.80;25.90
3330;DHT22;1677;49.576;10.990;2022-07-05T15:00:13;32.80;26.20
3330;DHT22;1677;49.576;10.990;2022-07-05T15:02:41;32.60;25.60
3330;DHT22;1677;49.576;10.990;2022-07-05T15:05:07;32.60;25.40
3330;DHT22;1677;49.576;10.990;2022-07-05T15:07:37;32.70;25.80
3330;DHT22;1677;49.576;10.990;2022-07-05T15:10:03;32.70;26.00
3330;DHT22;1677;49.576;10.990;2022-07-05T15:12:29;32.60;26.00
3330;DHT22;1677;49.576;10.990;2022-07-05T15:14:54;32.50;25.80
3330;DHT22;1677;49.576;10.990;2022-07-05T15:17:20;32.50;25.90
3330;DHT22;1677;49.576;10.990;2022-07-05T15:19:45;32.50;25.90
3330;DHT22;1677;49.576;10.990;2022-07-05T15:22:11;32.60;25.90
3330;DHT22;1677;49.576;10.990;2022-07-05T15:24:37;32.60;26.30
3330;DHT22;1677;49.576;10.990;2022-07-05T15:27:03;32.70;26.00
3330;DHT22;1677;49.576;10.990;2022-07-05T15:29:28;32.60;26.00
3330;DHT22;1677;49.576;10.990;2022-07-05T15:31:55;32.70;25.90
3330;DHT22;1677;49.576;10.990;2022-07-05T15:34:21;32.70;25.50
3330;DHT22;1677;49.576;10.990;2022-07-05T15:36:47;32.40;25.10
3330;DHT22;1677;49.576;10.990;2022-07-05T15:39:12;32.30;25.80
3330;DHT22;1677;49.576;10.990;2022-07-05T15:41:38;32.60;25.70
3330;DHT22;1677;49.576;10.990;2022-07-05T15:44:05;32.60;25.90
3330;DHT22;1677;49.576;10.990;2022-07-05T15:46:30;32.80;26.00
3330;DHT22;1677;49.576;10.990;2022-07-05T15:49:15;32.70;25.80
3330;DHT22;1677;49.576;10.990;2022-07-05T15:51:41;32.70;25.90
3330;DHT22;1677;49.576;10.990;2022-07-05T15:54:07;32.70;25.60
3330;DHT22;1677;49.576;10.990;2022-07-05T15:56:32;32.60;25.60
3330;DHT22;1677;49.576;10.990;2022-07-05T15:58:58;32.60;25.40
3330;DHT22;1677;49.576;10.990;2022-07-05T16:01:23;32.60;25.60
3330;DHT22;1677;49.576;10.990;2022-07-05T16:03:49;32.50;25.70
3330;DHT22;1677;49.576;10.990;2022-07-05T16:06:15;32.20;25.40
3330;DHT22;1677;49.576;10.990;2022-07-05T16:08:40;32.40;25.70